Time;durP1;ratioP1;P1;durP2;ratioP2;P2;SDS_P1;SDS_P2;PMS_P1;PMS_P2;Temp;Humidity;BMP_temperature;BMP_pressure;BME280_temperature;BME280_humidity;BME280_pressure;Samples;Min_cycle;Max_cycle;Signal;HPM_P1;HPM_P2
2021/09/19 00:02:17;;;;;;;18.48;13.38;;;9.30;99.90;;;;;;5082667;28;20031;-76
2021/09/19 00:04:43;;;;;;;26.67;15.95;;;9.30;99.90;;;;;;5108662;28;20063;-76
2021/09/19 00:07:08;;;;;;;23.25;15.73;;;9.30;99.90;;;;;;5094291;28;20016;-76
2021/09/19 00:09:34;;;;;;;22.25;15.10;;;9.20;99.90;;;;;;5095059;28;20039;-77
2021/09/19 00:12:00;;;;;;;24.05;15.77;;;9.20;99.90;;;;;;5095556;28;20381;-76
2021/09/19 00:14:25;;;;;;;26.88;16.25;;;9.20;99.90;;;;;;5094401;28;20024;-76
2021/09/19 00:16:51;;;;;;;23.00;16.10;;;9.20;99.90;;;;;;5095529;28;20031;-77
2021/09/19 00:19:17;;;;;;;26.35;16.83;;;9.10;99.90;;;;;;5094508;28;20044;-76
2021/09/19 00:21:43;;;;;;;23.50;15.75;;;9.10;99.90;;;;;;5094156;28;20111;-77
2021/09/19 00:24:09;;;;;;;23.50;15.60;;;9.10;99.90;;;;;;5094195;28;20084;-76
2021/09/19 00:26:34;;;;;;;19.73;13.25;;;9.20;99.90;;;;;;5093878;28;20016;-76
2021/09/19 00:29:00;;;;;;;18.80;12.80;;;9.20;99.90;;;;;;5090434;28;20535;-76
2021/09/19 00:31:26;;;;;;;17.80;13.00;;;9.10;99.90;;;;;;5078803;28;20028;-76
2021/09/19 00:33:51;;;;;;;15.73;10.52;;;9.10;99.90;;;;;;5084290;28;20469;-76
2021/09/19 00:36:17;;;;;;;14.88;11.48;;;9.00;99.90;;;;;;5093849;28;20099;-76
2021/09/19 00:38:44;;;;;;;15.27;10.55;;;9.00;99.90;;;;;;5085946;28;20388;-76
2021/09/19 00:41:09;;;;;;;17.65;11.32;;;9.00;99.90;;;;;;5090853;28;20071;-76
2021/09/19 00:43:35;;;;;;;20.33;10.70;;;9.00;99.90;;;;;;5082746;28;20016;-77
2021/09/19 00:46:01;;;;;;;14.95;11.20;;;9.00;99.90;;;;;;5094338;28;20024;-76
2021/09/19 00:48:26;;;;;;;16.35;12.15;;;8.90;99.90;;;;;;5092742;28;20437;-76
2021/09/19 00:50:52;;;;;;;16.80;11.85;;;8.90;99.90;;;;;;5093604;28;20024;-77
2021/09/19 00:53:20;;;;;;;16.10;10.50;;;8.90;99.90;;;;;;5092650;28;20012;-76
2021/09/19 00:55:48;;;;;;;17.75;11.38;;;8.80;99.90;;;;;;5093465;28;20035;-77
2021/09/19 00:58:16;;;;;;;18.05;12.60;;;8.80;99.90;;;;;;5092231;28;20071;-77
2021/09/19 01:00:47;;;;;;;18.70;11.93;;;8.80;99.90;;;;;;5094719;28;20024;-77
2021/09/19 01:03:13;;;;;;;19.02;11.95;;;8.80;99.90;;;;;;5091891;28;20024;-76
2021/09/19 01:05:39;;;;;;;16.17;11.27;;;8.80;99.90;;;;;;5081075;28;20040;-77
2021/09/19 01:08:05;;;;;;;20.23;12.07;;;8.80;99.90;;;;;;5076526;28;20016;-76
2021/09/19 01:10:31;;;;;;;19.23;12.75;;;8.80;99.90;;;;;;5093062;28;20047;-77
2021/09/19 01:12:57;;;;;;;21.65;14.68;;;8.80;99.90;;;;;;5085953;28;20099;-76
2021/09/19 01:15:24;;;;;;;19.25;13.00;;;8.80;99.90;;;;;;5092740;28;20034;-77
2021/09/19 01:17:50;;;;;;;22.50;13.90;;;8.80;99.90;;;;;;5091113;28;20198;-76
2021/09/19 01:20:16;;;;;;;20.13;13.82;;;8.70;99.90;;;;;;5077745;28;20032;-79
2021/09/19 01:22:46;;;;;;;21.65;16.20;;;8.60;99.90;;;;;;5091754;28;20107;-76
2021/09/19 01:25:14;;;;;;;25.55;16.35;;;8.60;99.90;;;;;;5092851;28;20410;-76
2021/09/19 01:27:42;;;;;;;23.58;15.80;;;8.50;99.90;;;;;;5091760;28;20028;-76
2021/09/19 01:30:09;;;;;;;26.92;17.50;;;8.50;99.90;;;;;;5094025;28;20020;-76
2021/09/19 01:32:39;;;;;;;25.13;16.35;;;8.50;99.90;;;;;;5091687;28;20020;-76
2021/09/19 01:35:05;;;;;;;25.60;16.83;;;8.40;99.90;;;;;;5072425;28;20051;-76
2021/09/19 01:37:31;;;;;;;27.80;17.45;;;8.30;99.90;;;;;;5072027;28;20445;-77
2021/09/19 01:39:56;;;;;;;28.95;19.23;;;8.40;99.90;;;;;;5091613;28;20059;-76
2021/09/19 01:42:25;;;;;;;24.48;15.68;;;8.40;99.90;;;;;;5078607;28;20097;-76
2021/09/19 01:44:51;;;;;;;24.45;16.30;;;8.40;99.90;;;;;;5084175;28;20020;-76
2021/09/19 01:47:16;;;;;;;26.23;15.13;;;8.40;99.90;;;;;;5093248;28;20081;-77
2021/09/19 01:49:49;;;;;;;21.60;13.60;;;8.40;99.90;;;;;;5090768;28;20110;-77
2021/09/19 01:52:16;;;;;;;18.85;13.60;;;8.40;99.90;;;;;;5092257;28;20031;-77
2021/09/19 01:54:42;;;;;;;17.30;11.88;;;8.40;99.90;;;;;;5070710;28;20032;-76
2021/09/19 01:57:07;;;;;;;22.60;13.07;;;8.30;99.90;;;;;;5088869;28;20399;-76
2021/09/19 01:59:34;;;;;;;21.08;13.60;;;8.30;99.90;;;;;;5090527;28;20038;-76
2021/09/19 02:01:59;;;;;;;22.77;14.68;;;8.30;99.90;;;;;;5093517;28;20421;-76
2021/09/19 02:04:25;;;;;;;20.70;12.95;;;8.30;99.90;;;;;;5089647;28;20143;-76
2021/09/19 02:06:50;;;;;;;22.63;13.20;;;8.30;99.90;;;;;;5091554;28;20046;-76
2021/09/19 02:09:16;;;;;;;19.67;12.63;;;8.30;99.90;;;;;;5090369;28;20547;-76
2021/09/19 02:11:42;;;;;;;20.85;13.35;;;8.30;99.90;;;;;;5092000;28;20051;-77
2021/09/19 02:14:07;;;;;;;19.45;13.15;;;8.40;99.90;;;;;;5089657;28;20031;-76
2021/09/19 02:16:33;;;;;;;19.20;12.80;;;8.40;99.90;;;;;;5079951;28;20481;-77
2021/09/19 02:18:59;;;;;;;17.75;11.70;;;8.40;99.90;;;;;;5086142;28;20036;-76
2021/09/19 02:21:25;;;;;;;19.83;12.65;;;8.30;99.90;;;;;;5091225;28;20107;-76
2021/09/19 02:23:51;;;;;;;18.38;13.02;;;8.30;99.90;;;;;;5079927;28;20380;-76
2021/09/19 02:26:17;;;;;;;20.17;11.63;;;8.30;99.90;;;;;;5090855;28;20032;-76
2021/09/19 02:28:42;;;;;;;15.73;11.23;;;8.30;99.90;;;;;;5088599;28;20026;-76
2021/09/19 02:31:08;;;;;;;14.95;11.13;;;8.30;99.90;;;;;;5090826;28;20020;-76
2021/09/19 02:33:34;;;;;;;15.50;10.32;;;8.30;99.90;;;;;;5089580;28;20031;-77
2021/09/19 02:36:00;;;;;;;13.40;9.93;;;8.20;99.90;;;;;;5092946;28;20058;-77
2021/09/19 02:38:26;;;;;;;17.45;10.80;;;8.20;99.90;;;;;;5090278;28;20028;-76
2021/09/19 02:40:53;;;;;;;19.55;11.15;;;8.10;99.90;;;;;;5091743;28;20477;-77
2021/09/19 02:43:20;;;;;;;16.55;11.10;;;8.10;99.90;;;;;;5087935;28;20028;-76
2021/09/19 02:45:46;;;;;;;15.23;10.30;;;8.10;99.90;;;;;;5091571;28;20038;-76
2021/09/19 02:48:12;;;;;;;19.67;12.77;;;8.10;99.90;;;;;;5090957;28;20461;-76
2021/09/19 02:50:37;;;;;;;21.98;13.70;;;8.00;99.90;;;;;;5091059;28;20024;-76
2021/09/19 02:53:03;;;;;;;23.77;15.65;;;7.90;99.90;;;;;;5090682;28;20023;-76
2021/09/19 02:55:29;;;;;;;24.20;15.32;;;7.90;99.90;;;;;;5092664;28;20027;-78
2021/09/19 02:57:54;;;;;;;26.38;16.75;;;7.80;99.90;;;;;;5087648;28;20466;-77
2021/09/19 03:00:21;;;;;;;30.10;16.45;;;7.80;99.90;;;;;;5092371;28;20089;-77
2021/09/19 03:02:49;;;;;;;29.77;17.35;;;7.70;99.90;;;;;;5090130;28;20036;-76
2021/09/19 03:05:15;;;;;;;29.38;18.63;;;7.80;99.90;;;;;;5091278;28;20020;-77
2021/09/19 03:07:41;;;;;;;27.05;15.82;;;7.70;99.90;;;;;;5077127;28;20020;-76
2021/09/19 03:10:08;;;;;;;25.83;15.98;;;7.70;99.90;;;;;;5086932;28;20044;-76
2021/09/19 03:12:34;;;;;;;25.10;15.88;;;7.70;99.90;;;;;;5090273;28;20020;-76
2021/09/19 03:15:01;;;;;;;27.15;15.75;;;7.60;99.90;;;;;;5090829;28;20032;-77
2021/09/19 03:17:26;;;;;;;25.75;16.42;;;7.60;99.90;;;;;;5086650;28;20070;-76
2021/09/19 03:19:52;;;;;;;27.73;15.63;;;7.60;99.90;;;;;;5089303;28;20032;-77
2021/09/19 03:22:18;;;;;;;27.42;15.93;;;7.60;99.90;;;;;;5091252;28;20075;-77
2021/09/19 03:24:44;;;;;;;21.42;14.98;;;7.60;99.90;;;;;;5089303;28;20488;-76
2021/09/19 03:27:09;;;;;;;22.73;14.68;;;7.60;99.90;;;;;;5091457;28;20020;-77
2021/09/19 03:29:35;;;;;;;22.23;14.52;;;7.60;99.90;;;;;;5093394;28;20141;-77
2021/09/19 03:32:01;;;;;;;24.02;15.13;;;7.60;99.90;;;;;;5096358;28;20095;-77
2021/09/19 03:34:27;;;;;;;19.52;14.50;;;7.60;99.90;;;;;;5091547;28;20032;-76
2021/09/19 03:36:53;;;;;;;24.20;15.52;;;7.60;99.90;;;;;;5096288;28;20073;-77
2021/09/19 03:39:18;;;;;;;23.55;15.02;;;7.60;99.90;;;;;;5079090;28;20032;-76
2021/09/19 03:41:44;;;;;;;20.23;15.05;;;7.50;99.90;;;;;;5089127;28;20031;-76
2021/09/19 03:44:10;;;;;;;25.25;15.25;;;7.50;99.90;;;;;;5092938;28;20056;-76
2021/09/19 03:46:37;;;;;;;23.73;15.40;;;7.50;99.90;;;;;;5095800;28;20532;-76
2021/09/19 03:49:03;;;;;;;24.80;14.52;;;7.50;99.90;;;;;;5094335;28;20028;-76
2021/09/19 03:51:29;;;;;;;23.70;14.48;;;7.40;99.90;;;;;;5077538;28;20012;-76
2021/09/19 03:53:55;;;;;;;24.38;16.00;;;7.30;99.90;;;;;;5085501;28;20058;-76
2021/09/19 03:56:20;;;;;;;25.88;14.68;;;7.20;99.90;;;;;;5094498;28;20020;-76
2021/09/19 03:58:46;;;;;;;21.90;14.27;;;7.20;99.90;;;;;;5093387;28;20063;-76
2021/09/19 04:01:12;;;;;;;21.33;13.25;;;7.30;99.90;;;;;;5095847;28;20428;-76
2021/09/19 04:03:37;;;;;;;25.88;15.07;;;7.20;99.90;;;;;;5093080;28;20027;-76
2021/09/19 04:06:03;;;;;;;24.05;14.02;;;7.20;99.90;;;;;;5095639;28;20024;-75
2021/09/19 04:08:29;;;;;;;23.92;14.38;;;7.30;99.90;;;;;;5092436;28;20381;-76
2021/09/19 04:10:54;;;;;;;25.45;13.95;;;7.20;99.90;;;;;;5094388;28;20027;-76
2021/09/19 04:13:20;;;;;;;21.75;13.68;;;7.10;99.90;;;;;;5093779;28;20107;-76
2021/09/19 04:15:46;;;;;;;26.98;15.88;;;7.10;99.90;;;;;;5094255;28;20036;-76
2021/09/19 04:18:14;;;;;;;20.52;13.85;;;7.10;99.90;;;;;;5090214;28;20110;-76
2021/09/19 04:20:40;;;;;;;23.48;12.45;;;7.20;99.90;;;;;;5094200;28;20032;-77
2021/09/19 04:23:05;;;;;;;17.63;11.27;;;7.20;99.90;;;;;;5094027;28;20023;-76
2021/09/19 04:25:31;;;;;;;18.38;10.88;;;7.20;99.90;;;;;;5095390;28;20028;-77
2021/09/19 04:27:57;;;;;;;17.38;11.02;;;7.20;99.90;;;;;;5091008;28;20020;-76
2021/09/19 04:30:22;;;;;;;17.48;10.25;;;7.30;99.90;;;;;;5094976;28;20028;-77
2021/09/19 04:32:48;;;;;;;15.57;9.77;;;7.30;99.90;;;;;;5092640;28;20433;-76
2021/09/19 04:35:14;;;;;;;17.88;11.23;;;7.30;99.90;;;;;;5088009;28;20540;-77
2021/09/19 04:37:39;;;;;;;18.75;12.40;;;7.20;99.90;;;;;;5088714;28;20389;-76
2021/09/19 04:40:06;;;;;;;16.75;10.65;;;7.20;99.90;;;;;;5092082;28;20165;-76
2021/09/19 04:42:32;;;;;;;21.20;11.32;;;7.20;99.90;;;;;;5093012;28;20477;-76
2021/09/19 04:44:58;;;;;;;19.55;11.18;;;7.20;99.90;;;;;;5091008;28;20024;-77
2021/09/19 04:47:23;;;;;;;16.35;10.82;;;7.20;99.90;;;;;;5090888;28;20051;-76
2021/09/19 04:49:49;;;;;;;16.88;11.68;;;7.20;99.90;;;;;;5087379;28;20130;-76
2021/09/19 04:52:15;;;;;;;19.77;12.52;;;7.20;99.90;;;;;;5085648;28;20012;-76
2021/09/19 04:54:41;;;;;;;18.40;11.52;;;7.20;99.90;;;;;;5084484;28;20524;-76
2021/09/19 04:57:07;;;;;;;17.10;11.40;;;7.20;99.90;;;;;;5093958;28;20104;-77
2021/09/19 04:59:33;;;;;;;19.17;10.60;;;7.30;99.90;;;;;;5089682;28;20478;-76
2021/09/19 05:01:59;;;;;;;21.92;10.98;;;7.20;99.90;;;;;;5078308;28;20048;-76
2021/09/19 05:04:25;;;;;;;16.42;10.70;;;7.30;99.90;;;;;;5090212;28;20426;-76
2021/09/19 05:06:50;;;;;;;17.05;10.68;;;7.20;99.90;;;;;;5090936;28;20056;-77
2021/09/19 05:09:16;;;;;;;17.70;11.52;;;7.20;99.90;;;;;;5087786;28;20474;-76
2021/09/19 05:11:42;;;;;;;21.75;12.70;;;7.20;99.90;;;;;;5090006;28;20025;-76
2021/09/19 05:14:07;;;;;;;20.05;12.88;;;7.20;99.90;;;;;;5087516;28;20020;-76
2021/09/19 05:16:33;;;;;;;18.05;12.68;;;7.20;99.90;;;;;;5094383;28;20113;-76
2021/09/19 05:18:59;;;;;;;20.58;12.57;;;7.20;99.90;;;;;;5092079;28;20111;-76
2021/09/19 05:21:25;;;;;;;23.48;14.75;;;7.20;99.90;;;;;;5093001;28;20093;-76
2021/09/19 05:23:51;;;;;;;22.35;13.93;;;7.10;99.90;;;;;;5088377;28;20028;-75
2021/09/19 05:26:17;;;;;;;22.73;14.55;;;7.10;99.90;;;;;;5092480;28;20028;-77
2021/09/19 05:28:42;;;;;;;23.25;14.85;;;7.10;99.90;;;;;;5089377;28;20025;-76
2021/09/19 05:31:08;;;;;;;26.25;15.90;;;7.10;99.90;;;;;;5094036;28;20027;-76
2021/09/19 05:33:34;;;;;;;20.23;13.02;;;7.00;99.90;;;;;;5080281;28;20127;-75
2021/09/19 05:36:00;;;;;;;22.10;14.50;;;7.10;99.90;;;;;;5092692;28;20497;-76
2021/09/19 05:38:26;;;;;;;22.25;13.40;;;7.10;99.90;;;;;;5090910;28;20435;-76
2021/09/19 05:40:52;;;;;;;22.38;14.18;;;7.10;99.90;;;;;;5093949;28;20058;-76
2021/09/19 05:43:17;;;;;;;15.00;10.90;;;7.20;99.90;;;;;;5091841;28;20056;-76
2021/09/19 05:45:43;;;;;;;17.55;11.98;;;7.20;99.90;;;;;;5092455;28;20028;-76
2021/09/19 05:48:09;;;;;;;18.83;11.93;;;7.20;99.90;;;;;;5090990;28;20385;-76
2021/09/19 05:50:34;;;;;;;17.05;12.32;;;7.30;99.90;;;;;;5091720;28;20020;-77
2021/09/19 05:53:00;;;;;;;20.23;12.23;;;7.40;99.90;;;;;;5088604;28;20085;-76
2021/09/19 05:55:26;;;;;;;19.13;11.60;;;7.40;99.90;;;;;;5091817;28;20020;-76
2021/09/19 05:57:52;;;;;;;19.88;11.32;;;7.40;99.90;;;;;;5090628;28;20037;-76
2021/09/19 06:00:17;;;;;;;16.38;10.48;;;7.50;99.90;;;;;;5091818;28;20397;-76
2021/09/19 06:02:43;;;;;;;14.30;9.38;;;7.50;99.90;;;;;;5086119;28;20055;-76
2021/09/19 06:05:10;;;;;;;14.80;10.40;;;7.60;99.90;;;;;;5091052;28;20366;-76
2021/09/19 06:07:36;;;;;;;14.88;10.02;;;7.60;99.90;;;;;;5090980;28;20053;-76
2021/09/19 06:10:02;;;;;;;14.77;9.75;;;7.70;99.90;;;;;;5092829;28;20028;-76
2021/09/19 06:12:28;;;;;;;18.63;10.82;;;7.70;99.90;;;;;;5089323;28;20073;-77
2021/09/19 06:14:54;;;;;;;13.30;8.48;;;7.90;99.90;;;;;;5088022;28;20458;-76
2021/09/19 06:17:20;;;;;;;12.55;9.20;;;7.80;99.90;;;;;;5089056;28;20032;-77
2021/09/19 06:19:47;;;;;;;17.73;9.82;;;7.90;99.90;;;;;;5088341;28;20115;-76
2021/09/19 06:22:13;;;;;;;13.32;8.73;;;7.90;99.90;;;;;;5086685;28;20020;-77
2021/09/19 06:24:39;;;;;;;14.75;9.05;;;7.90;99.90;;;;;;5089337;28;20115;-76
2021/09/19 06:27:05;;;;;;;15.23;9.93;;;8.00;99.90;;;;;;5090151;28;20028;-77
2021/09/19 06:29:30;;;;;;;14.18;8.80;;;7.90;99.90;;;;;;5085262;28;20054;-76
2021/09/19 06:31:56;;;;;;;15.35;9.13;;;8.00;99.90;;;;;;5088424;28;20595;-77
2021/09/19 06:34:22;;;;;;;14.73;9.55;;;7.90;99.90;;;;;;5089192;28;20062;-76
2021/09/19 06:36:47;;;;;;;23.45;13.02;;;8.00;99.90;;;;;;5090766;28;20035;-77
2021/09/19 06:39:13;;;;;;;18.27;9.85;;;7.90;99.90;;;;;;5088452;28;20024;-76
2021/09/19 06:41:39;;;;;;;12.13;8.23;;;8.00;99.90;;;;;;5091753;28;20016;-77
2021/09/19 06:44:05;;;;;;;13.38;8.15;;;7.90;99.90;;;;;;5078942;28;20389;-76
2021/09/19 06:46:31;;;;;;;14.10;8.50;;;7.90;99.90;;;;;;5081971;28;20080;-76
2021/09/19 06:48:59;;;;;;;13.48;7.97;;;7.80;99.90;;;;;;5087796;28;20028;-76
2021/09/19 06:51:25;;;;;;;14.02;8.75;;;7.90;99.90;;;;;;5091439;28;20045;-75
2021/09/19 06:53:51;;;;;;;10.27;7.05;;;7.90;99.90;;;;;;5081106;28;20040;-76
2021/09/19 06:56:17;;;;;;;13.10;7.65;;;7.90;99.90;;;;;;5091457;28;20016;-76
2021/09/19 06:58:42;;;;;;;13.85;7.80;;;7.90;99.90;;;;;;5079183;28;20116;-77
2021/09/19 07:01:08;;;;;;;13.23;7.43;;;7.90;99.90;;;;;;5089866;28;20032;-77
2021/09/19 07:03:35;;;;;;;12.75;7.30;;;8.00;99.90;;;;;;5094397;28;20028;-78
2021/09/19 07:06:01;;;;;;;11.35;7.03;;;8.00;99.90;;;;;;5092029;28;20027;-78
2021/09/19 07:08:27;;;;;;;11.02;7.25;;;8.00;99.90;;;;;;5092159;28;20393;-78
2021/09/19 07:10:53;;;;;;;10.80;6.78;;;8.00;99.90;;;;;;5094896;28;20061;-77
2021/09/19 07:13:21;;;;;;;10.77;6.10;;;8.00;99.90;;;;;;5094252;28;20038;-77
2021/09/19 07:15:52;;;;;;;8.60;5.85;;;8.10;99.90;;;;;;5093617;28;20477;-77
2021/09/19 07:18:27;;;;;;;11.68;7.20;;;8.20;99.90;;;;;;5093411;28;20028;-77
2021/09/19 07:20:53;;;;;;;10.07;6.03;;;8.20;99.90;;;;;;5094927;28;20126;-78
2021/09/19 07:23:20;;;;;;;8.13;5.75;;;8.20;99.90;;;;;;5088680;28;20025;-79
2021/09/19 07:25:46;;;;;;;9.48;6.28;;;8.30;99.90;;;;;;5076487;28;20024;-77
2021/09/19 07:28:12;;;;;;;12.80;7.13;;;8.40;99.90;;;;;;5093490;28;20469;-77
2021/09/19 07:30:38;;;;;;;12.13;7.63;;;8.30;99.90;;;;;;5076108;28;20070;-78
2021/09/19 07:33:04;;;;;;;9.82;6.75;;;8.30;99.90;;;;;;5079183;28;20020;-76
2021/09/19 07:35:30;;;;;;;10.82;7.53;;;8.30;99.90;;;;;;5077388;28;20374;-76
2021/09/19 07:37:56;;;;;;;12.77;6.90;;;8.30;99.90;;;;;;5086753;28;20024;-79
2021/09/19 07:40:22;;;;;;;12.18;8.15;;;8.30;99.90;;;;;;5074382;28;20067;-77
2021/09/19 07:42:49;;;;;;;10.10;6.72;;;8.40;99.90;;;;;;5080429;28;20040;-77
2021/09/19 07:45:15;;;;;;;12.00;7.28;;;8.40;99.90;;;;;;5083023;28;20027;-77
2021/09/19 07:47:41;;;;;;;8.18;6.47;;;8.50;99.90;;;;;;5084995;28;20020;-77
2021/09/19 07:50:08;;;;;;;12.20;6.20;;;8.50;99.90;;;;;;5080948;28;20009;-77
2021/09/19 07:52:35;;;;;;;12.15;6.03;;;8.50;99.90;;;;;;5084390;28;20071;-77
2021/09/19 07:55:00;;;;;;;11.80;6.10;;;8.40;99.90;;;;;;5086555;28;20028;-77
2021/09/19 07:57:26;;;;;;;10.35;6.20;;;8.50;99.90;;;;;;5092933;28;20472;-79
2021/09/19 07:59:54;;;;;;;10.32;6.05;;;8.40;99.90;;;;;;5083937;28;20054;-77
2021/09/19 08:02:20;;;;;;;14.80;6.95;;;8.50;99.90;;;;;;5085999;28;20043;-78
2021/09/19 08:04:46;;;;;;;11.80;7.65;;;8.50;99.90;;;;;;5086827;28;20036;-77
2021/09/19 08:07:12;;;;;;;14.48;8.80;;;8.70;99.90;;;;;;5085949;28;20114;-78
2021/09/19 08:09:38;;;;;;;10.60;7.20;;;8.60;99.90;;;;;;5083264;28;20039;-77
2021/09/19 08:12:05;;;;;;;12.05;7.78;;;8.80;99.90;;;;;;5083755;28;20024;-77
2021/09/19 08:14:31;;;;;;;12.30;8.05;;;8.90;99.90;;;;;;5083310;28;20402;-78
2021/09/19 08:16:57;;;;;;;12.13;8.32;;;9.00;99.90;;;;;;5084170;28;20016;-78
2021/09/19 08:19:24;;;;;;;11.20;7.28;;;9.00;99.90;;;;;;5084819;28;20493;-76
2021/09/19 08:21:50;;;;;;;11.90;7.55;;;9.00;99.90;;;;;;5086216;28;20020;-78
2021/09/19 08:24:16;;;;;;;14.63;6.63;;;9.00;99.90;;;;;;5084421;28;20833;-78
2021/09/19 08:26:42;;;;;;;12.18;6.53;;;9.10;99.90;;;;;;5085172;28;20020;-78
2021/09/19 08:29:09;;;;;;;13.15;6.78;;;9.10;99.90;;;;;;5083874;28;20024;-77
2021/09/19 08:31:37;;;;;;;11.45;7.38;;;9.10;99.90;;;;;;5085027;28;20074;-77
2021/09/19 08:34:03;;;;;;;8.13;5.63;;;9.00;99.90;;;;;;5086185;28;20032;-77
2021/09/19 08:36:29;;;;;;;10.20;6.05;;;9.20;99.90;;;;;;5084004;28;20105;-78
2021/09/19 08:38:55;;;;;;;8.40;5.32;;;9.20;99.90;;;;;;5085486;28;20043;-77
2021/09/19 08:41:21;;;;;;;14.23;6.07;;;9.30;99.90;;;;;;5086430;28;20024;-77
2021/09/19 08:43:48;;;;;;;10.02;5.53;;;9.30;99.90;;;;;;5083047;28;20031;-77
2021/09/19 08:46:16;;;;;;;8.95;4.85;;;9.40;99.90;;;;;;5083124;28;20103;-77
2021/09/19 08:48:42;;;;;;;7.75;4.80;;;9.40;99.90;;;;;;5078127;28;20024;-77
2021/09/19 08:51:08;;;;;;;9.40;5.47;;;9.40;99.90;;;;;;5079360;28;20032;-77
2021/09/19 08:53:33;;;;;;;11.02;5.78;;;9.40;99.90;;;;;;5081999;28;20021;-77
2021/09/19 08:55:59;;;;;;;7.88;5.10;;;9.50;99.90;;;;;;5080133;28;20481;-77
2021/09/19 08:58:25;;;;;;;7.15;5.50;;;9.60;99.90;;;;;;5081642;28;20111;-77
2021/09/19 09:00:51;;;;;;;7.72;4.70;;;9.70;99.90;;;;;;5082394;28;20385;-77
2021/09/19 09:03:20;;;;;;;7.38;4.63;;;9.50;99.90;;;;;;5080557;28;20020;-76
2021/09/19 09:05:53;;;;;;;8.13;4.72;;;9.50;99.90;;;;;;5080770;28;20021;-77
2021/09/19 09:08:19;;;;;;;8.90;4.75;;;9.50;99.90;;;;;;5078607;28;20091;-77
2021/09/19 09:10:47;;;;;;;6.95;5.30;;;9.50;99.90;;;;;;5082474;28;20725;-78
2021/09/19 09:13:20;;;;;;;9.68;5.43;;;9.50;99.90;;;;;;5099421;28;20031;-76
2021/09/19 09:15:49;;;;;;;7.82;4.88;;;9.60;99.90;;;;;;5082349;28;20024;-77
2021/09/19 09:18:32;;;;;;;8.35;4.85;;;9.50;99.90;;;;;;5082217;28;20027;-77
2021/09/19 09:21:19;;;;;;;8.98;4.80;;;9.70;99.90;;;;;;5081163;28;20021;-76
2021/09/19 09:23:49;;;;;;;5.50;4.22;;;9.60;99.90;;;;;;5096544;28;21319;-76
2021/09/19 09:26:21;;;;;;;6.68;4.50;;;9.80;99.90;;;;;;5079638;28;20024;-76
2021/09/19 09:28:50;;;;;;;9.77;5.40;;;9.80;99.90;;;;;;5081330;28;20020;-76
2021/09/19 09:31:47;;;;;;;12.32;5.25;;;9.90;99.90;;;;;;5082666;28;20269;-77
2021/09/19 09:34:21;;;;;;;8.80;5.03;;;9.80;99.90;;;;;;5080821;28;20037;-76
2021/09/19 09:36:54;;;;;;;8.15;4.78;;;9.80;99.90;;;;;;5081048;28;20040;-76
2021/09/19 09:39:23;;;;;;;11.13;5.15;;;9.90;99.90;;;;;;5081035;28;20489;-76
2021/09/19 09:41:49;;;;;;;12.63;5.13;;;10.00;99.90;;;;;;5083529;28;20031;-76
2021/09/19 09:44:42;;;;;;;9.18;4.40;;;9.90;99.90;;;;;;5082370;28;20095;-76
2021/09/19 09:47:17;;;;;;;7.15;5.22;;;10.00;99.90;;;;;;5078195;28;20038;-76
2021/09/19 09:49:55;;;;;;;8.13;4.63;;;10.10;99.90;;;;;;5081215;28;20454;-76
2021/09/19 09:52:26;;;;;;;7.70;4.32;;;10.30;99.90;;;;;;5078520;28;20017;-75
2021/09/19 09:54:56;;;;;;;7.95;4.22;;;10.20;99.90;;;;;;5078640;28;20509;-75
2021/09/19 09:57:37;;;;;;;7.35;4.25;;;10.30;99.90;;;;;;5079304;28;20481;-75
2021/09/19 10:00:13;;;;;;;7.93;4.50;;;10.20;99.90;;;;;;5078403;28;20082;-75
2021/09/19 10:02:42;;;;;;;9.10;5.20;;;10.20;99.90;;;;;;5079131;28;20580;-75
2021/09/19 10:05:09;;;;;;;8.95;5.10;;;10.20;99.90;;;;;;5077947;28;20113;-75
2021/09/19 10:07:36;;;;;;;8.77;4.50;;;10.30;99.90;;;;;;5078232;28;20032;-75
2021/09/19 10:10:04;;;;;;;9.35;4.40;;;10.30;99.90;;;;;;5078344;28;20016;-76
2021/09/19 10:12:30;;;;;;;8.45;4.78;;;10.40;99.90;;;;;;5079246;28;20068;-75
2021/09/19 10:14:56;;;;;;;7.28;4.63;;;10.60;99.90;;;;;;5078320;28;20099;-76
2021/09/19 10:17:23;;;;;;;5.78;4.68;;;10.70;99.90;;;;;;5081688;28;20028;-75
2021/09/19 10:19:51;;;;;;;8.00;4.47;;;10.60;99.90;;;;;;5082740;28;20489;-75
2021/09/19 10:22:24;;;;;;;7.63;4.45;;;10.70;99.90;;;;;;5086361;28;20519;-75
2021/09/19 10:24:51;;;;;;;6.78;4.55;;;11.00;99.90;;;;;;5086158;28;20025;-76
2021/09/19 10:27:23;;;;;;;6.30;4.15;;;11.00;99.90;;;;;;5083665;28;20370;-76
2021/09/19 10:29:57;;;;;;;10.10;4.63;;;11.20;99.90;;;;;;5086288;28;20061;-76
2021/09/19 10:32:43;;;;;;;8.45;3.95;;;11.30;99.90;;;;;;5087315;28;20025;-76
2021/09/19 10:35:18;;;;;;;7.30;4.63;;;11.20;97.60;;;;;;5083617;28;20012;-76
2021/09/19 10:38:10;;;;;;;7.43;4.18;;;11.20;99.90;;;;;;5075981;28;20127;-75
2021/09/19 10:40:37;;;;;;;7.00;4.50;;;11.10;98.00;;;;;;5075540;28;20032;-76
2021/09/19 10:43:09;;;;;;;7.50;4.85;;;11.20;99.90;;;;;;5083304;28;20143;-77
2021/09/19 10:45:45;;;;;;;8.75;5.30;;;11.30;99.90;;;;;;5083459;28;20024;-76
2021/09/19 10:48:14;;;;;;;7.18;4.65;;;11.20;99.90;;;;;;5083185;28;20096;-76
2021/09/19 10:50:41;;;;;;;11.38;6.15;;;11.30;99.10;;;;;;5079517;28;20020;-76
2021/09/19 10:53:12;;;;;;;10.07;4.38;;;11.30;99.90;;;;;;5088432;28;20239;-76
2021/09/19 10:56:01;;;;;;;7.47;5.00;;;11.20;99.90;;;;;;5087441;28;20024;-76
2021/09/19 10:58:33;;;;;;;6.97;4.47;;;11.30;99.90;;;;;;5082124;28;20063;-75
2021/09/19 11:01:19;;;;;;;7.33;4.40;;;11.30;96.40;;;;;;5083677;28;20028;-75
2021/09/19 11:04:08;;;;;;;7.40;4.63;;;11.20;95.90;;;;;;5079103;28;20035;-75
2021/09/19 11:06:40;;;;;;;6.47;4.60;;;11.30;99.50;;;;;;5085735;28;20043;-76
2021/09/19 11:09:27;;;;;;;10.18;4.88;;;11.40;99.30;;;;;;5076109;28;20081;-75
2021/09/19 11:12:10;;;;;;;10.95;5.28;;;11.40;97.70;;;;;;5086315;28;20028;-76
2021/09/19 11:15:02;;;;;;;5.43;4.60;;;11.40;99.90;;;;;;5097492;28;20016;-76
2021/09/19 11:17:31;;;;;;;8.65;5.20;;;11.50;96.50;;;;;;5084147;28;20036;-76
2021/09/19 11:20:25;;;;;;;6.82;4.45;;;11.60;98.70;;;;;;5081208;28;20089;-75
2021/09/19 11:22:58;;;;;;;6.78;4.57;;;11.70;97.50;;;;;;5082891;28;20556;-76
2021/09/19 11:25:23;;;;;;;7.72;5.25;;;11.60;95.80;;;;;;5081416;28;20059;-75
2021/09/19 11:27:51;;;;;;;5.93;4.55;;;11.60;96.50;;;;;;5084216;28;20476;-76
2021/09/19 11:30:20;;;;;;;5.25;4.75;;;11.70;96.70;;;;;;5077044;28;20025;-75
2021/09/19 11:32:47;;;;;;;5.53;4.68;;;11.70;96.00;;;;;;5082093;28;20035;-76
2021/09/19 11:35:13;;;;;;;9.18;5.53;;;11.70;97.50;;;;;;5085551;28;20024;-76
2021/09/19 11:37:39;;;;;;;7.20;5.22;;;11.70;97.00;;;;;;5087095;28;20054;-76
2021/09/19 11:40:11;;;;;;;7.15;5.10;;;11.60;96.40;;;;;;5089983;28;20036;-77
2021/09/19 11:42:38;;;;;;;9.40;6.03;;;11.70;99.90;;;;;;5088246;28;20023;-77
2021/09/19 11:45:10;;;;;;;6.97;5.15;;;11.90;99.90;;;;;;5089599;28;20021;-76
2021/09/19 11:47:39;;;;;;;9.18;6.55;;;11.80;99.90;;;;;;5088371;28;20024;-76
2021/09/19 11:50:06;;;;;;;9.77;6.75;;;11.80;99.90;;;;;;5087375;28;20020;-76
2021/09/19 11:52:32;;;;;;;7.38;6.05;;;11.70;99.90;;;;;;5090590;28;20073;-77
2021/09/19 11:54:58;;;;;;;7.95;5.70;;;11.70;99.90;;;;;;5093807;28;20494;-76
2021/09/19 11:57:24;;;;;;;7.38;5.55;;;11.80;99.90;;;;;;5094632;28;20020;-76
2021/09/19 11:59:49;;;;;;;7.88;5.25;;;11.80;99.90;;;;;;5094939;28;20046;-76
2021/09/19 12:02:16;;;;;;;6.60;5.45;;;11.80;99.90;;;;;;5094373;28;20409;-76
2021/09/19 12:04:46;;;;;;;7.25;5.75;;;11.80;99.90;;;;;;5092009;28;20020;-76
2021/09/19 12:07:13;;;;;;;6.65;5.38;;;11.70;99.90;;;;;;5091603;28;20040;-76
2021/09/19 12:09:52;;;;;;;10.18;6.40;;;11.70;99.90;;;;;;5090963;28;20045;-76
2021/09/19 12:12:19;;;;;;;9.02;6.07;;;11.90;99.90;;;;;;5090301;28;20500;-77
2021/09/19 12:14:47;;;;;;;10.32;6.40;;;12.00;99.90;;;;;;5091082;28;20020;-77
2021/09/19 12:17:14;;;;;;;7.22;6.30;;;12.00;99.90;;;;;;5089928;28;20020;-76
2021/09/19 12:19:45;;;;;;;8.18;5.88;;;11.90;99.90;;;;;;5088114;28;20477;-76
2021/09/19 12:22:23;;;;;;;5.40;4.50;;;11.90;99.90;;;;;;5094727;28;20043;-76
2021/09/19 12:24:54;;;;;;;5.20;4.45;;;11.90;99.90;;;;;;5094336;28;20036;-76
2021/09/19 12:27:25;;;;;;;9.07;5.63;;;11.90;99.90;;;;;;5095330;28;20048;-77
2021/09/19 12:30:15;;;;;;;7.55;5.18;;;11.80;99.90;;;;;;5093288;28;20016;-76
2021/09/19 12:32:46;;;;;;;8.65;5.38;;;11.90;99.90;;;;;;5093034;28;20381;-76
2021/09/19 12:35:33;;;;;;;6.75;5.10;;;11.90;99.90;;;;;;5093580;28;20024;-76
2021/09/19 12:38:00;;;;;;;4.97;4.38;;;12.00;99.90;;;;;;5092888;28;20093;-76
2021/09/19 12:40:27;;;;;;;9.25;6.20;;;12.00;99.90;;;;;;5095005;28;20035;-76
2021/09/19 12:43:13;;;;;;;6.30;4.70;;;11.90;97.70;;;;;;5093927;28;20240;-76
2021/09/19 12:45:46;;;;;;;5.32;4.38;;;11.80;99.90;;;;;;5093756;28;20103;-76
2021/09/19 12:48:12;;;;;;;7.35;4.72;;;11.70;99.90;;;;;;5092552;28;20024;-76